createdAt,value
2018-08-19T00:00:51.285Z,97608.65
2018-08-19T00:03:18.726Z,97599.86
2018-08-19T00:05:46.134Z,97600.11
2018-08-19T00:08:13.616Z,97601.33
2018-08-19T00:10:41.049Z,97601.51
2018-08-19T00:13:08.477Z,97602.48
2018-08-19T00:15:35.915Z,97604.04
2018-08-19T00:18:03.363Z,97607.28
2018-08-19T00:20:30.816Z,97605.70
2018-08-19T00:22:58.383Z,97601.64
2018-08-19T00:25:25.856Z,97606.86
2018-08-19T00:27:53.288Z,97601.78
2018-08-19T00:30:20.752Z,97605.47
2018-08-19T00:32:48.168Z,97602.53
2018-08-19T00:35:15.632Z,97601.61
2018-08-19T00:37:43.054Z,97612.86
2018-08-19T00:40:10.542Z,97607.37
2018-08-19T00:42:38.014Z,97607.16
2018-08-19T00:45:05.502Z,97603.66
2018-08-19T00:47:32.909Z,97604.10
2018-08-19T00:50:00.314Z,97603.74
2018-08-19T00:52:27.722Z,97606.59
2018-08-19T00:54:55.185Z,97603.56
2018-08-19T00:57:22.622Z,97604.55
2018-08-19T00:59:50.138Z,97599.83
2018-08-19T01:02:17.574Z,97607.17
2018-08-19T01:04:45.019Z,97605.56
2018-08-19T01:07:12.456Z,97604.91
2018-08-19T01:09:40.016Z,97596.94
2018-08-19T01:12:07.493Z,97594.36
2018-08-19T01:14:35.752Z,97600.02
2018-08-19T01:17:03.496Z,97601.18
2018-08-19T01:19:30.968Z,97603.99
2018-08-19T01:21:58.979Z,97604.52
2018-08-19T01:24:26.411Z,97602.45
2018-08-19T01:26:53.846Z,97595.13
2018-08-19T01:29:21.296Z,97599.31
2018-08-19T01:31:48.734Z,97602.13
2018-08-19T01:34:16.215Z,97600.66
2018-08-19T01:36:43.656Z,97597.80
2018-08-19T01:39:11.261Z,97599.93
2018-08-19T01:41:38.658Z,97600.02
2018-08-19T01:44:06.116Z,97601.08
2018-08-19T01:46:33.595Z,97598.97
2018-08-19T01:49:01.012Z,97598.41
2018-08-19T01:51:28.544Z,97593.53
2018-08-19T01:53:55.980Z,97587.42
2018-08-19T01:56:24.687Z,97595.98
2018-08-19T01:58:52.448Z,97595.53
2018-08-19T02:01:19.857Z,97595.80
2018-08-19T02:03:47.352Z,97594.94
2018-08-19T02:06:14.821Z,97594.38
2018-08-19T02:08:42.305Z,97593.42
2018-08-19T02:11:09.751Z,97594.47
2018-08-19T02:13:37.194Z,97597.70
2018-08-19T02:16:04.636Z,97602.43
2018-08-19T02:18:32.035Z,97604.03
2018-08-19T02:20:59.513Z,97606.05
2018-08-19T02:23:26.954Z,97601.77
2018-08-19T02:25:54.448Z,97600.70
2018-08-19T02:28:21.903Z,97604.19
2018-08-19T02:30:49.335Z,97600.43
2018-08-19T02:33:16.821Z,97601.17
2018-08-19T02:35:44.375Z,97600.48
2018-08-19T02:38:11.850Z,97601.11
2018-08-19T02:40:39.275Z,97594.91
2018-08-19T02:43:06.856Z,97597.75
2018-08-19T02:45:34.356Z,97597.85
2018-08-19T02:48:01.779Z,97599.01
2018-08-19T02:50:29.716Z,97601.31
2018-08-19T02:52:57.180Z,97601.05
2018-08-19T02:55:24.595Z,97594.23
2018-08-19T02:57:52.060Z,97592.34
2018-08-19T03:00:19.497Z,97598.92
2018-08-19T03:02:46.912Z,97588.61
2018-08-19T03:05:14.400Z,97590.67
2018-08-19T03:07:41.879Z,97588.64
2018-08-19T03:10:09.316Z,97590.81
2018-08-19T03:12:36.740Z,97588.82
2018-08-19T03:15:04.237Z,97584.30
2018-08-19T03:17:31.707Z,97589.36
2018-08-19T03:19:59.139Z,97586.83
2018-08-19T03:22:26.561Z,97591.75
2018-08-19T03:24:53.992Z,97588.28
2018-08-19T03:27:21.382Z,97593.84
2018-08-19T03:29:48.842Z,97589.06
2018-08-19T03:32:16.240Z,97583.99
2018-08-19T03:34:43.753Z,97580.36
2018-08-19T03:37:11.160Z,97585.05
2018-08-19T03:39:38.630Z,97586.52
2018-08-19T03:42:06.106Z,97594.42
2018-08-19T03:44:34.029Z,97591.43
2018-08-19T03:47:01.544Z,97594.79
2018-08-19T03:49:29.060Z,97592.81
2018-08-19T03:51:56.454Z,97596.81
2018-08-19T03:54:24.044Z,97590.93
2018-08-19T03:56:51.565Z,97594.56
2018-08-19T03:59:18.968Z,97595.06
2018-08-19T04:01:46.406Z,97599.23
2018-08-19T04:04:13.858Z,97604.09
2018-08-19T04:06:41.289Z,97596.37
2018-08-19T04:09:09.484Z,97597.48
2018-08-19T04:11:36.931Z,97597.03
2018-08-19T04:14:04.387Z,97598.73
2018-08-19T04:16:31.790Z,97600.39
2018-08-19T04:18:59.241Z,97601.92
2018-08-19T04:21:26.721Z,97610.58
2018-08-19T04:23:54.193Z,97604.03
2018-08-19T04:26:21.695Z,97607.94
2018-08-19T04:28:49.459Z,97607.39
2018-08-19T04:31:16.889Z,97605.78
2018-08-19T04:33:44.364Z,97611.19
2018-08-19T04:36:11.824Z,97608.11
2018-08-19T04:38:39.251Z,97615.52
2018-08-19T04:41:06.702Z,97610.00
2018-08-19T04:43:34.135Z,97614.10
2018-08-19T04:46:01.549Z,97611.38
2018-08-19T04:48:28.980Z,97609.63
2018-08-19T04:50:56.373Z,97616.82
2018-08-19T04:53:23.832Z,97617.13
2018-08-19T04:55:51.307Z,97617.41
2018-08-19T04:58:18.735Z,97619.22
2018-08-19T05:00:46.172Z,97614.40
2018-08-19T05:03:13.597Z,97617.19
2018-08-19T05:05:41.125Z,97614.08
2018-08-19T05:08:08.699Z,97623.43
2018-08-19T05:10:36.876Z,97625.43
2018-08-19T05:13:04.320Z,97625.26
2018-08-19T05:15:31.802Z,97628.77
2018-08-19T05:17:59.313Z,97631.40
2018-08-19T05:20:26.808Z,97633.70
2018-08-19T05:22:54.304Z,97625.73
2018-08-19T05:25:21.776Z,97627.64
2018-08-19T05:27:49.246Z,97637.48
2018-08-19T05:30:16.725Z,97634.97
2018-08-19T05:32:44.212Z,97641.16
2018-08-19T05:35:11.657Z,97649.67
2018-08-19T05:37:39.126Z,97651.21
2018-08-19T05:40:06.557Z,97645.46
2018-08-19T05:42:34.016Z,97647.73
2018-08-19T05:45:01.549Z,97647.91
2018-08-19T05:47:29.029Z,97647.23
2018-08-19T05:49:56.430Z,97648.72
2018-08-19T05:52:23.844Z,97647.17
2018-08-19T05:54:51.263Z,97640.14
2018-08-19T05:57:18.786Z,97649.16
2018-08-19T05:59:46.198Z,97647.97
2018-08-19T06:02:13.829Z,97648.28
2018-08-19T06:04:41.264Z,97654.14
2018-08-19T06:07:08.796Z,97657.67
2018-08-19T06:09:36.279Z,97653.72
2018-08-19T06:12:03.727Z,97649.62
2018-08-19T06:14:31.222Z,97651.34
2018-08-19T06:16:58.654Z,97653.37
2018-08-19T06:19:26.132Z,97658.55
2018-08-19T06:21:53.612Z,97650.23
2018-08-19T06:24:21.069Z,97657.16
2018-08-19T06:26:48.491Z,97654.14
2018-08-19T06:29:16.588Z,97655.00
2018-08-19T06:31:44.067Z,97655.60
2018-08-19T06:34:11.504Z,97658.06
2018-08-19T06:36:39.010Z,97654.58
2018-08-19T06:39:06.385Z,97656.41
2018-08-19T06:41:33.804Z,97655.14
2018-08-19T06:44:01.242Z,97657.28
2018-08-19T06:46:28.748Z,97651.30
2018-08-19T06:48:56.161Z,97654.47
2018-08-19T06:51:23.601Z,97658.27
2018-08-19T06:53:51.095Z,97656.70
2018-08-19T06:56:19.157Z,97651.31
2018-08-19T06:58:46.585Z,97652.42
2018-08-19T07:01:14.020Z,97657.45
2018-08-19T07:03:41.485Z,97656.09
2018-08-19T07:06:08.927Z,97653.53
2018-08-19T07:08:36.344Z,97649.27
2018-08-19T07:11:04.312Z,97646.31
2018-08-19T07:13:31.789Z,97654.82
2018-08-19T07:15:59.299Z,97654.86
2018-08-19T07:18:26.693Z,97646.87
2018-08-19T07:20:54.143Z,97648.10
2018-08-19T07:23:21.587Z,97645.25
2018-08-19T07:25:49.006Z,97649.30
2018-08-19T07:28:17.223Z,97651.24
2018-08-19T07:30:45.862Z,97652.87
2018-08-19T07:33:13.329Z,97654.00
2018-08-19T07:35:40.795Z,97652.11
2018-08-19T07:38:08.242Z,97656.09
2018-08-19T07:40:35.686Z,97660.36
2018-08-19T07:43:03.081Z,97653.61
2018-08-19T07:45:30.509Z,97652.23
2018-08-19T07:47:57.930Z,97651.88
2018-08-19T07:50:25.386Z,97655.77
2018-08-19T07:52:52.817Z,97659.53
2018-08-19T07:55:20.300Z,97652.95
2018-08-19T07:57:47.749Z,97650.48
2018-08-19T08:00:15.289Z,97658.20
2018-08-19T08:02:42.744Z,97660.25
2018-08-19T08:05:10.191Z,97661.48
2018-08-19T08:07:37.662Z,97663.09
2018-08-19T08:10:05.103Z,97668.30
2018-08-19T08:12:32.552Z,97659.77
2018-08-19T08:14:59.963Z,97671.05
2018-08-19T08:17:27.441Z,97656.36
2018-08-19T08:19:54.858Z,97665.09
2018-08-19T08:22:22.386Z,97660.64
2018-08-19T08:24:49.869Z,97656.84
2018-08-19T08:27:17.377Z,97656.41
2018-08-19T08:29:44.840Z,97654.80
2018-08-19T08:32:12.367Z,97654.50
2018-08-19T08:34:39.843Z,97650.88
2018-08-19T08:37:07.335Z,97663.48
2018-08-19T08:39:34.756Z,97655.91
2018-08-19T08:42:02.214Z,97653.50
2018-08-19T08:44:29.737Z,97655.52
2018-08-19T08:46:57.143Z,97650.62
2018-08-19T08:49:24.656Z,97645.03
2018-08-19T08:51:52.134Z,97647.97
2018-08-19T08:54:19.146Z,97646.11
2018-08-19T08:56:46.139Z,97647.14
2018-08-19T08:59:13.214Z,97638.51
2018-08-19T09:01:40.488Z,97638.61
2018-08-19T09:04:07.434Z,97640.36
2018-08-19T09:06:34.436Z,97640.19
2018-08-19T09:09:01.470Z,97640.60
2018-08-19T09:11:28.884Z,97639.02
2018-08-19T09:13:55.881Z,97631.63
2018-08-19T09:16:22.819Z,97632.98
2018-08-19T09:18:49.784Z,97632.27
2018-08-19T09:21:16.747Z,97631.69
2018-08-19T09:23:43.758Z,97625.80
2018-08-19T09:26:10.768Z,97635.05
2018-08-19T09:28:37.755Z,97629.74
2018-08-19T09:31:04.709Z,97639.42
2018-08-19T09:33:31.723Z,97639.23
2018-08-19T09:35:58.693Z,97636.00
2018-08-19T09:38:25.722Z,97632.82
2018-08-19T09:40:52.955Z,97630.52
2018-08-19T09:43:19.887Z,97627.37
2018-08-19T09:45:46.882Z,97633.09
2018-08-19T09:48:13.817Z,97630.31
2018-08-19T09:50:40.846Z,97631.50
2018-08-19T09:53:07.864Z,97627.20
2018-08-19T09:55:35.390Z,97628.23
2018-08-19T09:58:02.913Z,97622.91
2018-08-19T10:00:30.411Z,97622.36
2018-08-19T10:02:57.818Z,97624.20
2018-08-19T10:05:25.603Z,97614.87
2018-08-19T10:07:53.090Z,97616.73
2018-08-19T10:10:20.551Z,97611.02
2018-08-19T10:12:48.137Z,97611.11
2018-08-19T10:15:15.654Z,97601.91
2018-08-19T10:17:43.201Z,97607.18
2018-08-19T10:20:10.615Z,97615.52
2018-08-19T10:22:38.348Z,97606.93
2018-08-19T10:25:05.825Z,97601.89
2018-08-19T10:27:33.283Z,97610.50
2018-08-19T10:30:00.755Z,97607.40
2018-08-19T10:32:28.200Z,97601.84
2018-08-19T10:34:55.678Z,97600.31
2018-08-19T10:37:23.148Z,97594.41
2018-08-19T10:39:50.739Z,97597.94
2018-08-19T10:42:18.180Z,97586.77
2018-08-19T10:44:45.635Z,97591.30
2018-08-19T10:47:13.071Z,97585.91
2018-08-19T10:49:40.470Z,97586.34
2018-08-19T10:52:07.952Z,97584.99
2018-08-19T10:54:35.389Z,97589.16
2018-08-19T10:57:02.833Z,97582.41
2018-08-19T10:59:29.885Z,97576.13
2018-08-19T11:01:56.823Z,97584.62
2018-08-19T11:04:23.964Z,97581.91
2018-08-19T11:06:50.970Z,97576.14
2018-08-19T11:09:17.960Z,97566.70
2018-08-19T11:11:45.061Z,97564.04
2018-08-19T11:14:12.064Z,97564.66
2018-08-19T11:16:39.106Z,97565.76
2018-08-19T11:19:06.677Z,97564.41
2018-08-19T11:21:33.729Z,97557.59
2018-08-19T11:24:00.702Z,97552.73
2018-08-19T11:26:27.768Z,97556.06
2018-08-19T11:28:54.744Z,97555.50
2018-08-19T11:31:21.921Z,97552.59
2018-08-19T11:33:50.047Z,97551.23
2018-08-19T11:36:17.087Z,97552.92
2018-08-19T11:38:44.368Z,97553.77
2018-08-19T11:41:11.807Z,97551.84
2018-08-19T11:43:42.504Z,97559.27
2018-08-19T11:46:09.979Z,97559.68
2018-08-19T11:48:37.746Z,97563.43
2018-08-19T11:51:05.188Z,97555.92
2018-08-19T11:53:32.643Z,97553.36
2018-08-19T11:56:00.179Z,97555.86
2018-08-19T11:58:27.615Z,97551.67
2018-08-19T12:00:55.091Z,97548.44
2018-08-19T12:03:22.583Z,97545.63
2018-08-19T12:05:50.181Z,97543.11
2018-08-19T12:08:18.578Z,97536.83
2018-08-19T12:10:46.038Z,97535.50
2018-08-19T12:13:13.066Z,97535.18
2018-08-19T12:15:40.472Z,97530.81
2018-08-19T12:18:07.733Z,97524.20
2018-08-19T12:20:34.766Z,97516.90
2018-08-19T12:23:01.777Z,97516.16
2018-08-19T12:25:28.798Z,97518.72
2018-08-19T12:27:55.932Z,97513.91
2018-08-19T12:30:23.785Z,97517.19
2018-08-19T12:32:51.691Z,97513.55
2018-08-19T12:35:18.727Z,97516.16
2018-08-19T12:37:45.698Z,97510.73
2018-08-19T12:40:12.710Z,97513.43
2018-08-19T12:42:39.687Z,97506.23
2018-08-19T12:45:06.690Z,97504.36
2018-08-19T12:47:33.702Z,97501.81
2018-08-19T12:50:00.721Z,97503.98
2018-08-19T12:52:27.781Z,97500.87
2018-08-19T12:54:55.350Z,97500.75
2018-08-19T12:57:22.401Z,97497.55
2018-08-19T12:59:49.469Z,97508.09
2018-08-19T13:02:16.530Z,97504.62
2018-08-19T13:04:43.987Z,97504.42
2018-08-19T13:07:10.962Z,97499.08
2018-08-19T13:09:37.926Z,97492.59
2018-08-19T13:12:05.018Z,97492.36
2018-08-19T13:14:31.972Z,97494.72
2018-08-19T13:16:58.910Z,97488.54
2018-08-19T13:19:25.937Z,97486.59
2018-08-19T13:21:52.933Z,97482.97
2018-08-19T13:24:19.907Z,97477.19
2018-08-19T13:26:46.897Z,97473.86
2018-08-19T13:29:13.903Z,97475.47
2018-08-19T13:31:40.933Z,97471.23
2018-08-19T13:34:07.872Z,97470.23
2018-08-19T13:36:34.888Z,97467.89
2018-08-19T13:39:01.989Z,97476.27
2018-08-19T13:41:29.188Z,97472.05
2018-08-19T13:43:56.184Z,97473.17
2018-08-19T13:46:23.132Z,97462.17
2018-08-19T13:48:50.438Z,97457.64
2018-08-19T13:51:17.494Z,97459.55
2018-08-19T13:53:44.453Z,97458.69
2018-08-19T13:56:11.529Z,97450.17
2018-08-19T13:58:38.553Z,97452.36
2018-08-19T14:01:05.543Z,97453.16
2018-08-19T14:03:32.505Z,97454.11
2018-08-19T14:05:59.448Z,97449.11
2018-08-19T14:08:26.401Z,97450.39
2018-08-19T14:10:53.527Z,97445.09
2018-08-19T14:13:21.835Z,97446.06
2018-08-19T14:15:48.811Z,97439.00
2018-08-19T14:18:15.859Z,97440.70
2018-08-19T14:20:42.877Z,97442.59
2018-08-19T14:23:09.860Z,97427.55
2018-08-19T14:25:36.879Z,97431.08
2018-08-19T14:28:03.864Z,97435.13
2018-08-19T14:30:30.917Z,97427.82
2018-08-19T14:32:57.866Z,97426.52
2018-08-19T14:35:24.862Z,97423.47
2018-08-19T14:37:52.328Z,97431.19
2018-08-19T14:40:20.169Z,97425.72
2018-08-19T14:42:47.085Z,97417.64
2018-08-19T14:45:14.278Z,97428.21
2018-08-19T14:47:41.247Z,97426.64
2018-08-19T14:50:08.237Z,97423.01
2018-08-19T14:52:35.203Z,97420.08
2018-08-19T14:55:02.166Z,97417.11
2018-08-19T14:57:29.229Z,97421.11
2018-08-19T14:59:56.784Z,97416.69
2018-08-19T15:02:23.812Z,97421.16
2018-08-19T15:04:50.812Z,97414.66
2018-08-19T15:07:17.880Z,97411.89
2018-08-19T15:09:44.967Z,97416.89
2018-08-19T15:12:11.977Z,97410.37
2018-08-19T15:14:39.098Z,97411.38
2018-08-19T15:17:06.078Z,97410.22
2018-08-19T15:19:33.119Z,97399.73
2018-08-19T15:22:00.118Z,97409.10
2018-08-19T15:24:27.220Z,97398.67
2018-08-19T15:26:54.238Z,97402.02
2018-08-19T15:29:21.401Z,97403.63
2018-08-19T15:31:49.419Z,97399.09
2018-08-19T15:34:16.441Z,97404.42
2018-08-19T15:36:43.534Z,97398.52
2018-08-19T15:39:10.476Z,97401.78
2018-08-19T15:41:37.535Z,97405.05
2018-08-19T15:44:05.027Z,97403.34
2018-08-19T15:46:32.042Z,97396.91
2018-08-19T15:48:59.069Z,97396.11
2018-08-19T15:51:26.046Z,97391.08
2018-08-19T15:53:53.204Z,97399.58
2018-08-19T15:56:20.246Z,97386.36
2018-08-19T15:58:47.305Z,97392.72
2018-08-19T16:01:14.288Z,97387.91
2018-08-19T16:03:41.226Z,97388.91
2018-08-19T16:06:08.252Z,97384.30
2018-08-19T16:08:35.259Z,97381.03
2018-08-19T16:13:35.820Z,97383.00
2018-08-19T16:16:02.775Z,97384.34
2018-08-19T16:18:29.830Z,97380.34
2018-08-19T16:20:56.889Z,97375.55
2018-08-19T16:23:23.870Z,97380.69
2018-08-19T16:25:50.861Z,97378.07
2018-08-19T16:28:17.856Z,97374.50
2018-08-19T16:30:44.885Z,97373.81
2018-08-19T16:33:11.912Z,97372.27
2018-08-19T16:35:38.965Z,97369.13
2018-08-19T16:38:05.966Z,97369.49
2018-08-19T16:40:32.914Z,97366.13
2018-08-19T16:42:59.944Z,97377.06
2018-08-19T16:45:26.912Z,97362.02
2018-08-19T16:47:53.852Z,97367.65
2018-08-19T16:50:20.911Z,97362.06
2018-08-19T16:52:47.931Z,97365.11
2018-08-19T16:55:14.905Z,97361.09
2018-08-19T16:57:41.987Z,97364.16
2018-08-19T17:00:09.112Z,97360.80
2018-08-19T17:02:36.781Z,97362.45
2018-08-19T17:05:04.032Z,97361.51
2018-08-19T17:07:30.983Z,97363.19
2018-08-19T17:09:58.073Z,97363.55
2018-08-19T17:12:25.016Z,97359.17
2018-08-19T17:14:52.038Z,97360.05
2018-08-19T17:17:19.174Z,97359.98
2018-08-19T17:19:46.668Z,97372.66
2018-08-19T17:22:14.155Z,97366.51
2018-08-19T17:24:41.592Z,97360.66
2018-08-19T17:27:09.028Z,97365.56
2018-08-19T17:29:36.523Z,97366.57
2018-08-19T17:32:04.021Z,97360.86
2018-08-19T17:34:32.426Z,97361.22
2018-08-19T17:37:00.041Z,97365.45
2018-08-19T17:39:27.812Z,97367.08
2018-08-19T17:41:56.180Z,97367.80
2018-08-19T17:44:23.589Z,97363.83
2018-08-19T17:46:51.003Z,97371.78
2018-08-19T17:49:18.587Z,97370.03
2018-08-19T17:51:46.080Z,97371.91
2018-08-19T17:54:13.507Z,97374.55
2018-08-19T17:56:40.931Z,97382.35
2018-08-19T17:59:08.389Z,97383.69
2018-08-19T18:01:35.932Z,97389.21
2018-08-19T18:04:03.383Z,97385.86
2018-08-19T18:06:31.062Z,97384.01
2018-08-19T18:08:58.543Z,97385.79
2018-08-19T18:11:27.302Z,97384.13
2018-08-19T18:13:54.871Z,97389.35
2018-08-19T18:16:21.853Z,97392.67
2018-08-19T18:18:49.317Z,97389.21
2018-08-19T18:21:16.866Z,97395.44
2018-08-19T18:23:44.298Z,97389.31
2018-08-19T18:26:11.696Z,97392.10
2018-08-19T18:28:39.190Z,97390.41
2018-08-19T18:31:06.696Z,97396.48
2018-08-19T18:33:34.168Z,97396.38
2018-08-19T18:36:01.201Z,97397.59
2018-08-19T18:38:28.691Z,97395.80
2018-08-19T18:40:56.182Z,97395.66
2018-08-19T18:43:23.662Z,97395.72
2018-08-19T18:45:51.171Z,97395.16
2018-08-19T18:48:18.691Z,97401.97
2018-08-19T18:50:45.706Z,97404.59
2018-08-19T18:53:12.866Z,97409.34
2018-08-19T18:55:40.438Z,97408.54
2018-08-19T18:58:07.498Z,97405.69
2018-08-19T19:00:34.623Z,97408.15
2018-08-19T19:03:01.658Z,97410.61
2018-08-19T19:05:29.187Z,97409.63
2018-08-19T19:07:56.698Z,97417.47
2018-08-19T19:10:23.832Z,97414.64
2018-08-19T19:12:51.178Z,97412.12
2018-08-19T19:15:18.616Z,97413.27
2018-08-19T19:17:46.132Z,97416.13
2018-08-19T19:20:13.705Z,97416.07
2018-08-19T19:22:41.047Z,97422.50
2018-08-19T19:25:08.079Z,97425.59
2018-08-19T19:27:35.147Z,97431.15
2018-08-19T19:30:02.655Z,97431.02
2018-08-19T19:32:30.070Z,97429.97
2018-08-19T19:34:57.600Z,97434.59
2018-08-19T19:37:25.028Z,97433.67
2018-08-19T19:39:52.471Z,97437.99
2018-08-19T19:42:19.410Z,97439.75
2018-08-19T19:44:46.381Z,97441.97
2018-08-19T19:47:13.874Z,97448.68
2018-08-19T19:49:41.486Z,97447.27
2018-08-19T19:52:08.852Z,97456.37
2018-08-19T19:54:36.332Z,97453.33
2018-08-19T19:57:03.830Z,97449.97
2018-08-19T19:59:30.836Z,97448.27
2018-08-19T20:01:58.220Z,97460.13
2018-08-19T20:04:25.654Z,97450.16
2018-08-19T20:06:52.641Z,97459.75
2018-08-19T20:09:20.165Z,97453.15
2018-08-19T20:11:47.186Z,97457.57
2018-08-19T20:14:14.794Z,97461.23
2018-08-19T20:16:42.278Z,97461.94
2018-08-19T20:19:09.753Z,97462.30
2018-08-19T20:21:36.899Z,97464.81
2018-08-19T20:24:03.886Z,97463.39
2018-08-19T20:26:31.036Z,97466.59
2018-08-19T20:28:58.099Z,97459.35
2018-08-19T20:31:25.117Z,97459.59
2018-08-19T20:33:52.091Z,97460.23
2018-08-19T20:36:19.494Z,97469.42
2018-08-19T20:38:46.542Z,97470.55
2018-08-19T20:41:13.478Z,97469.61
2018-08-19T20:43:40.490Z,97468.65
2018-08-19T20:46:07.452Z,97470.54
2018-08-19T20:48:34.455Z,97471.67
2018-08-19T20:51:01.479Z,97470.98
2018-08-19T20:53:29.394Z,97469.63
2018-08-19T20:55:56.436Z,97476.28
2018-08-19T20:58:23.384Z,97478.55
2018-08-19T21:00:50.531Z,97474.36
2018-08-19T21:03:17.600Z,97477.38
2018-08-19T21:05:44.720Z,97482.89
2018-08-19T21:08:12.191Z,97472.38
2018-08-19T21:10:39.211Z,97477.96
2018-08-19T21:13:06.649Z,97478.23
2018-08-19T21:15:34.141Z,97481.72
2018-08-19T21:18:01.105Z,97476.34
2018-08-19T21:20:28.059Z,97481.06
2018-08-19T21:22:55.049Z,97483.96
2018-08-19T21:25:22.013Z,97485.82
2018-08-19T21:27:49.429Z,97484.76
2018-08-19T21:30:16.461Z,97496.30
2018-08-19T21:32:43.908Z,97492.86
2018-08-19T21:35:11.999Z,97494.48
2018-08-19T21:37:39.896Z,97490.90
2018-08-19T21:40:07.278Z,97491.10
2018-08-19T21:42:34.764Z,97488.08
2018-08-19T21:45:02.187Z,97488.31
2018-08-19T21:47:29.844Z,97491.30
2018-08-19T21:49:57.301Z,97492.95
2018-08-19T21:52:24.832Z,97496.01
2018-08-19T21:54:52.229Z,97492.42
2018-08-19T21:57:19.676Z,97491.73
2018-08-19T21:59:47.078Z,97496.13
2018-08-19T22:02:14.517Z,97495.30
2018-08-19T22:04:41.938Z,97492.74
2018-08-19T22:07:09.430Z,97493.77
2018-08-19T22:09:36.891Z,97491.69
2018-08-19T22:12:04.324Z,97492.23
2018-08-19T22:14:31.728Z,97488.38
2018-08-19T22:16:59.146Z,97487.96
2018-08-19T22:19:26.611Z,97484.67
2018-08-19T22:21:54.051Z,97484.97
2018-08-19T22:24:21.482Z,97483.14
2018-08-19T22:26:49.054Z,97485.36
2018-08-19T22:29:16.514Z,97487.55
2018-08-19T22:31:43.951Z,97487.38
2018-08-19T22:34:11.428Z,97486.80
2018-08-19T22:36:38.866Z,97481.97
2018-08-19T22:39:06.372Z,97492.62
2018-08-19T22:41:33.848Z,97494.42
2018-08-19T22:44:01.304Z,97495.95
2018-08-19T22:46:28.875Z,97497.50
2018-08-19T22:48:56.301Z,97497.95
2018-08-19T22:51:23.783Z,97494.39
2018-08-19T22:53:51.472Z,97495.47
2018-08-19T22:56:19.040Z,97492.20
2018-08-19T22:58:46.540Z,97492.80
2018-08-19T23:01:14.025Z,97488.83
2018-08-19T23:03:41.422Z,97492.11
2018-08-19T23:06:08.989Z,97493.59
2018-08-19T23:08:36.439Z,97491.03
2018-08-19T23:11:03.924Z,97495.07
2018-08-19T23:13:32.207Z,97496.66
2018-08-19T23:15:59.616Z,97492.30
2018-08-19T23:18:27.068Z,97488.86
2018-08-19T23:20:54.467Z,97483.52
2018-08-19T23:23:21.899Z,97488.05
2018-08-19T23:25:49.342Z,97485.31
2018-08-19T23:28:16.793Z,97483.77
2018-08-19T23:30:44.269Z,97481.66
2018-08-19T23:33:11.753Z,97484.70
2018-08-19T23:35:39.304Z,97476.89
2018-08-19T23:38:06.756Z,97484.52
2018-08-19T23:40:34.167Z,97476.33
2018-08-19T23:43:01.591Z,97478.49
2018-08-19T23:45:29.052Z,97478.17
2018-08-19T23:47:56.458Z,97474.92
2018-08-19T23:50:23.863Z,97475.53
2018-08-19T23:52:51.287Z,97464.16
2018-08-19T23:55:18.730Z,97468.11
2018-08-19T23:57:46.208Z,97465.27
